createdAt,value
2019-05-06T00:00:29.152Z,986.23
2019-05-06T00:01:29.159Z,986.18
2019-05-06T00:02:29.153Z,986.17
2019-05-06T00:03:29.155Z,986.20
2019-05-06T00:04:29.156Z,986.19
2019-05-06T00:05:29.153Z,986.19
2019-05-06T00:06:29.152Z,986.19
2019-05-06T00:07:29.154Z,986.24
2019-05-06T00:08:29.154Z,986.21
2019-05-06T00:09:29.154Z,986.20
2019-05-06T00:10:29.159Z,986.19
2019-05-06T00:11:29.154Z,986.25
2019-05-06T00:12:29.158Z,986.24
2019-05-06T00:13:29.155Z,986.20
2019-05-06T00:14:29.160Z,986.26
2019-05-06T00:15:29.158Z,986.23
2019-05-06T00:16:29.155Z,986.26
2019-05-06T00:17:29.158Z,986.19
2019-05-06T00:18:29.156Z,986.26
2019-05-06T00:19:29.154Z,986.28
2019-05-06T00:20:29.156Z,986.26
2019-05-06T00:21:29.154Z,986.25
2019-05-06T00:22:29.156Z,986.19
2019-05-06T00:23:29.155Z,986.27
2019-05-06T00:24:29.157Z,986.24
2019-05-06T00:25:29.161Z,986.19
2019-05-06T00:26:29.158Z,986.21
2019-05-06T00:27:29.161Z,986.19
2019-05-06T00:28:29.157Z,986.15
2019-05-06T00:29:29.160Z,986.18
2019-05-06T00:30:29.155Z,986.21
2019-05-06T00:31:29.159Z,986.21
2019-05-06T00:32:29.155Z,986.22
2019-05-06T00:33:29.158Z,986.22
2019-05-06T00:34:29.156Z,986.22
2019-05-06T00:35:29.157Z,986.20
2019-05-06T00:36:29.155Z,986.22
2019-05-06T00:37:29.156Z,986.25
2019-05-06T00:38:29.155Z,986.22
2019-05-06T00:39:29.155Z,986.23
2019-05-06T00:40:29.157Z,986.21
2019-05-06T00:41:29.158Z,986.19
2019-05-06T00:42:29.159Z,986.21
2019-05-06T00:43:29.161Z,986.23
2019-05-06T00:44:29.155Z,986.22
2019-05-06T00:45:29.154Z,986.24
2019-05-06T00:46:29.155Z,986.27
2019-05-06T00:47:29.154Z,986.25
2019-05-06T00:48:29.155Z,986.30
2019-05-06T00:49:29.157Z,986.27
2019-05-06T00:50:29.157Z,986.33
2019-05-06T00:51:29.159Z,986.28
2019-05-06T00:52:29.155Z,986.28
2019-05-06T00:53:29.159Z,986.28
2019-05-06T00:54:29.154Z,986.30
2019-05-06T00:55:29.156Z,986.30
2019-05-06T00:56:29.156Z,986.26
2019-05-06T00:57:29.159Z,986.31
2019-05-06T00:58:29.154Z,986.27
2019-05-06T00:59:29.155Z,986.32
2019-05-06T01:00:29.156Z,986.35
2019-05-06T01:01:29.938Z,986.32
2019-05-06T01:02:29.158Z,986.34
2019-05-06T01:03:29.157Z,986.36
2019-05-06T01:04:29.161Z,986.33
2019-05-06T01:05:29.156Z,986.29
2019-05-06T01:06:29.155Z,986.35
2019-05-06T01:07:29.158Z,986.35
2019-05-06T01:08:29.158Z,986.33
2019-05-06T01:09:29.156Z,986.37
2019-05-06T01:10:29.157Z,986.36
2019-05-06T01:11:29.156Z,986.36
2019-05-06T01:12:29.163Z,986.35
2019-05-06T01:13:29.156Z,986.38
2019-05-06T01:14:29.157Z,986.35
2019-05-06T01:15:29.155Z,986.39
2019-05-06T01:16:29.156Z,986.45
2019-05-06T01:17:29.156Z,986.40
2019-05-06T01:18:29.156Z,986.41
2019-05-06T01:19:29.156Z,986.42
2019-05-06T01:20:29.158Z,986.43
2019-05-06T01:21:29.159Z,986.41
2019-05-06T01:22:29.157Z,986.41
2019-05-06T01:23:29.157Z,986.40
2019-05-06T01:24:29.157Z,986.48
2019-05-06T01:25:29.158Z,986.40
2019-05-06T01:26:29.160Z,986.43
2019-05-06T01:27:29.161Z,986.43
2019-05-06T01:28:29.161Z,986.41
2019-05-06T01:29:29.158Z,986.42
2019-05-06T01:30:29.158Z,986.37
2019-05-06T01:31:42.344Z,986.40
2019-05-06T01:32:29.157Z,986.38
2019-05-06T01:33:29.159Z,986.38
2019-05-06T01:34:29.156Z,986.37
2019-05-06T01:35:29.161Z,986.39
2019-05-06T01:36:29.157Z,986.37
2019-05-06T01:37:29.160Z,986.34
2019-05-06T01:38:29.156Z,986.33
2019-05-06T01:39:29.159Z,986.36
2019-05-06T01:40:29.164Z,986.37
2019-05-06T01:41:29.160Z,986.36
2019-05-06T01:42:29.163Z,986.33
2019-05-06T01:43:29.158Z,986.37
2019-05-06T01:44:29.160Z,986.37
2019-05-06T01:45:29.158Z,986.39
2019-05-06T01:46:29.161Z,986.38
2019-05-06T01:47:29.156Z,986.38
2019-05-06T01:48:29.160Z,986.42
2019-05-06T01:49:29.158Z,986.44
2019-05-06T01:50:29.156Z,986.44
2019-05-06T01:51:29.156Z,986.45
2019-05-06T01:52:29.156Z,986.48
2019-05-06T01:53:29.157Z,986.43
2019-05-06T01:54:29.160Z,986.45
2019-05-06T01:55:29.159Z,986.43
2019-05-06T01:56:29.158Z,986.48
2019-05-06T01:57:29.161Z,986.47
2019-05-06T01:58:29.161Z,986.46
2019-05-06T01:59:29.156Z,986.48
2019-05-06T02:00:29.156Z,986.46
2019-05-06T02:01:29.156Z,986.46
2019-05-06T02:02:29.155Z,986.47
2019-05-06T02:03:29.156Z,986.47
2019-05-06T02:04:29.159Z,986.45
2019-05-06T02:05:29.156Z,986.41
2019-05-06T02:06:29.160Z,986.45
2019-05-06T02:07:29.156Z,986.50
2019-05-06T02:08:29.163Z,986.49
2019-05-06T02:09:29.157Z,986.53
2019-05-06T02:10:29.156Z,986.47
2019-05-06T02:11:29.156Z,986.50
2019-05-06T02:12:29.162Z,986.49
2019-05-06T02:13:29.157Z,986.49
2019-05-06T02:14:29.156Z,986.47
2019-05-06T02:15:29.156Z,986.49
2019-05-06T02:16:29.157Z,986.50
2019-05-06T02:17:29.157Z,986.52
2019-05-06T02:18:29.156Z,986.51
2019-05-06T02:19:29.157Z,986.52
2019-05-06T02:20:29.159Z,986.52
2019-05-06T02:21:29.156Z,986.52
2019-05-06T02:22:29.163Z,986.50
2019-05-06T02:23:29.158Z,986.50
2019-05-06T02:24:29.159Z,986.50
2019-05-06T02:25:29.158Z,986.51
2019-05-06T02:26:29.157Z,986.50
2019-05-06T02:27:29.164Z,986.53
2019-05-06T02:28:29.157Z,986.52
2019-05-06T02:29:29.159Z,986.51
2019-05-06T02:30:29.157Z,986.49
2019-05-06T02:31:29.159Z,986.51
2019-05-06T02:32:31.449Z,986.50
2019-05-06T02:33:29.160Z,986.50
2019-05-06T02:34:29.166Z,986.51
2019-05-06T02:35:29.157Z,986.53
2019-05-06T02:36:29.162Z,986.52
2019-05-06T02:37:29.161Z,986.52
2019-05-06T02:38:39.264Z,986.55
2019-05-06T02:39:29.166Z,986.56
2019-05-06T02:40:29.157Z,986.59
2019-05-06T02:41:29.159Z,986.56
2019-05-06T02:42:29.157Z,986.54
2019-05-06T02:43:29.162Z,986.56
2019-05-06T02:44:29.161Z,986.57
2019-05-06T02:45:29.157Z,986.55
2019-05-06T02:46:29.156Z,986.54
2019-05-06T02:47:29.159Z,986.57
2019-05-06T02:48:29.159Z,986.58
2019-05-06T02:49:29.158Z,986.58
2019-05-06T02:50:29.217Z,986.55
2019-05-06T02:51:29.156Z,986.58
2019-05-06T02:52:29.162Z,986.56
2019-05-06T02:53:29.158Z,986.59
2019-05-06T02:54:29.158Z,986.59
2019-05-06T02:55:32.556Z,986.62
2019-05-06T02:56:29.163Z,986.64
2019-05-06T02:57:29.156Z,986.66
2019-05-06T02:58:29.158Z,986.60
2019-05-06T02:59:29.157Z,986.66
2019-05-06T03:00:29.158Z,986.65
2019-05-06T03:01:29.160Z,986.65
2019-05-06T03:02:39.886Z,986.65
2019-05-06T03:03:29.156Z,986.63
2019-05-06T03:04:29.164Z,986.66
2019-05-06T03:05:29.157Z,986.69
2019-05-06T03:06:29.155Z,986.66
2019-05-06T03:07:29.158Z,986.63
2019-05-06T03:08:29.155Z,986.67
2019-05-06T03:09:29.157Z,986.65
2019-05-06T03:10:29.156Z,986.66
2019-05-06T03:11:29.159Z,986.67
2019-05-06T03:12:29.160Z,986.64
2019-05-06T03:13:29.157Z,986.65
2019-05-06T03:14:29.160Z,986.68
2019-05-06T03:15:29.157Z,986.66
2019-05-06T03:16:29.159Z,986.68
2019-05-06T03:17:29.170Z,986.67
2019-05-06T03:18:29.160Z,986.67
2019-05-06T03:19:29.159Z,986.67
2019-05-06T03:20:29.158Z,986.65
2019-05-06T03:21:29.158Z,986.64
2019-05-06T03:22:29.160Z,986.66
2019-05-06T03:23:29.159Z,986.69
2019-05-06T03:24:29.159Z,986.67
2019-05-06T03:25:29.161Z,986.65
2019-05-06T03:26:29.168Z,986.68
2019-05-06T03:27:29.157Z,986.67
2019-05-06T03:28:29.160Z,986.72
2019-05-06T03:29:29.158Z,986.69
2019-05-06T03:30:29.158Z,986.69
2019-05-06T03:31:29.157Z,986.70
2019-05-06T03:32:32.158Z,986.63
2019-05-06T03:33:46.975Z,986.72
2019-05-06T03:34:52.266Z,986.74
2019-05-06T03:35:44.160Z,986.71
2019-05-06T03:36:34.530Z,986.76
2019-05-06T03:37:29.171Z,986.75
2019-05-06T03:38:29.161Z,986.75
2019-05-06T03:39:29.160Z,986.77
2019-05-06T03:40:29.159Z,986.74
2019-05-06T03:41:29.159Z,986.73
2019-05-06T03:42:29.161Z,986.73
2019-05-06T03:43:29.159Z,986.76
2019-05-06T03:44:29.159Z,986.77
2019-05-06T03:45:29.158Z,986.78
2019-05-06T03:46:29.160Z,986.75
2019-05-06T03:47:29.160Z,986.77
2019-05-06T03:48:29.160Z,986.79
2019-05-06T03:49:29.160Z,986.74
2019-05-06T03:50:29.159Z,986.79
2019-05-06T03:51:29.168Z,986.78
2019-05-06T03:52:29.164Z,986.78
2019-05-06T03:53:29.160Z,986.79
2019-05-06T03:54:29.158Z,986.78
2019-05-06T03:55:29.163Z,986.78
2019-05-06T03:56:29.159Z,986.83
2019-05-06T03:57:29.176Z,986.81
2019-05-06T03:58:29.164Z,986.81
2019-05-06T03:59:29.163Z,986.84
2019-05-06T04:00:29.164Z,986.84
2019-05-06T04:01:29.167Z,986.82
2019-05-06T04:02:29.162Z,986.83
2019-05-06T04:03:43.887Z,986.85
2019-05-06T04:04:29.162Z,986.86
2019-05-06T04:05:29.162Z,986.85
2019-05-06T04:06:29.164Z,986.84
2019-05-06T04:07:29.161Z,986.85
2019-05-06T04:08:29.162Z,986.83
2019-05-06T04:09:29.164Z,986.86
2019-05-06T04:10:29.168Z,986.86
2019-05-06T04:11:29.167Z,986.85
2019-05-06T04:12:29.168Z,986.86
2019-05-06T04:13:29.162Z,986.88
2019-05-06T04:14:29.162Z,986.89
2019-05-06T04:15:29.167Z,986.88
2019-05-06T04:16:29.163Z,986.86
2019-05-06T04:17:29.166Z,986.94
2019-05-06T04:18:29.164Z,986.93
2019-05-06T04:19:29.165Z,986.93
2019-05-06T04:20:29.179Z,986.95
2019-05-06T04:21:29.166Z,986.94
2019-05-06T04:22:29.165Z,986.95
2019-05-06T04:23:29.167Z,987.02
2019-05-06T04:24:29.168Z,986.99
2019-05-06T04:25:29.166Z,987.04
2019-05-06T04:26:29.167Z,987.03
2019-05-06T04:27:29.177Z,987.04
2019-05-06T04:28:29.177Z,987.03
2019-05-06T04:29:29.167Z,987.05
2019-05-06T04:30:29.174Z,987.05
2019-05-06T04:31:29.166Z,987.08
2019-05-06T04:32:29.169Z,987.08
2019-05-06T04:33:29.176Z,987.06
2019-05-06T04:34:29.167Z,987.10
2019-05-06T04:35:29.168Z,987.07
2019-05-06T04:36:29.169Z,987.07
2019-05-06T04:37:29.173Z,987.05
2019-05-06T04:38:29.169Z,987.06
2019-05-06T04:39:29.168Z,987.03
2019-05-06T04:40:29.168Z,987.11
2019-05-06T04:41:29.174Z,987.10
2019-05-06T04:42:29.174Z,987.08
2019-05-06T04:43:29.181Z,987.08
2019-05-06T04:44:29.172Z,987.11
2019-05-06T04:45:29.171Z,987.07
2019-05-06T04:46:29.170Z,987.11
2019-05-06T04:47:29.171Z,987.13
2019-05-06T04:48:29.171Z,987.17
2019-05-06T04:49:29.171Z,987.13
2019-05-06T04:50:29.173Z,987.14
2019-05-06T04:51:29.172Z,987.16
2019-05-06T04:52:29.173Z,987.18
2019-05-06T04:53:29.176Z,987.17
2019-05-06T04:54:29.173Z,987.24
2019-05-06T04:55:29.175Z,987.24
2019-05-06T04:56:29.175Z,987.26
2019-05-06T04:57:29.176Z,987.26
2019-05-06T04:58:29.178Z,987.26
2019-05-06T04:59:29.187Z,987.26
2019-05-06T05:00:29.182Z,987.25
2019-05-06T05:01:29.176Z,987.23
2019-05-06T05:02:29.177Z,987.23
2019-05-06T05:03:29.181Z,987.19
2019-05-06T05:04:32.715Z,987.16
2019-05-06T05:05:29.183Z,987.21
2019-05-06T05:06:29.181Z,987.19
2019-05-06T05:07:29.180Z,987.23
2019-05-06T05:08:29.181Z,987.22
2019-05-06T05:09:29.181Z,987.27
2019-05-06T05:10:29.186Z,987.19
2019-05-06T05:11:29.182Z,987.23
2019-05-06T05:12:29.183Z,987.22
2019-05-06T05:13:29.185Z,987.21
2019-05-06T05:14:29.189Z,987.22
2019-05-06T05:15:29.185Z,987.25
2019-05-06T05:16:29.187Z,987.22
2019-05-06T05:17:29.186Z,987.24
2019-05-06T05:18:29.186Z,987.27
2019-05-06T05:19:29.189Z,987.29
2019-05-06T05:20:37.727Z,987.31
2019-05-06T05:21:29.188Z,987.28
2019-05-06T05:22:29.192Z,987.30
2019-05-06T05:23:29.192Z,987.31
2019-05-06T05:24:29.192Z,987.31
2019-05-06T05:25:29.196Z,987.34
2019-05-06T05:26:29.252Z,987.35
2019-05-06T05:27:29.205Z,987.36
2019-05-06T05:28:29.201Z,987.39
2019-05-06T05:29:29.197Z,987.37
2019-05-06T05:30:29.204Z,987.38
2019-05-06T05:31:29.200Z,987.41
2019-05-06T05:32:29.198Z,987.41
2019-05-06T05:33:29.201Z,987.41
2019-05-06T05:34:39.504Z,987.40
2019-05-06T05:35:29.200Z,987.42
2019-05-06T05:36:29.203Z,987.44
2019-05-06T05:37:29.202Z,987.40
2019-05-06T05:38:29.203Z,987.43
2019-05-06T05:39:29.206Z,987.50
2019-05-06T05:40:29.208Z,987.48
2019-05-06T05:41:29.206Z,987.47
2019-05-06T05:42:29.218Z,987.53
2019-05-06T05:43:29.252Z,987.52
2019-05-06T05:44:29.209Z,987.49
2019-05-06T05:45:29.213Z,987.55
2019-05-06T05:46:29.211Z,987.55
2019-05-06T05:47:29.241Z,987.56
2019-05-06T05:48:29.214Z,987.56
2019-05-06T05:49:29.215Z,987.61
2019-05-06T05:50:29.218Z,987.56
2019-05-06T05:51:29.217Z,987.61
2019-05-06T05:52:29.222Z,987.59
2019-05-06T05:53:29.222Z,987.62
2019-05-06T05:54:29.227Z,987.63
2019-05-06T05:55:29.247Z,987.65
2019-05-06T05:56:29.233Z,987.67
2019-05-06T05:57:29.230Z,987.65
2019-05-06T05:58:29.226Z,987.65
2019-05-06T05:59:29.224Z,987.71
2019-05-06T06:00:29.226Z,987.68
2019-05-06T06:01:29.232Z,987.73
2019-05-06T06:02:29.236Z,987.77
2019-05-06T06:03:29.228Z,987.77
2019-05-06T06:04:29.232Z,987.79
2019-05-06T06:05:29.234Z,987.79
2019-05-06T06:06:29.234Z,987.78
2019-05-06T06:07:29.237Z,987.78
2019-05-06T06:08:29.236Z,987.83
2019-05-06T06:09:29.237Z,987.79
2019-05-06T06:10:29.244Z,987.77
2019-05-06T06:11:29.239Z,987.81
2019-05-06T06:12:29.242Z,987.80
2019-05-06T06:13:29.248Z,987.77
2019-05-06T06:14:29.244Z,987.78
2019-05-06T06:15:29.247Z,987.85
2019-05-06T06:16:29.253Z,987.82
2019-05-06T06:17:29.249Z,987.81
2019-05-06T06:18:29.249Z,987.84
2019-05-06T06:19:29.255Z,987.83
2019-05-06T06:20:29.262Z,987.82
2019-05-06T06:21:29.255Z,987.83
2019-05-06T06:22:29.253Z,987.85
2019-05-06T06:23:29.256Z,987.90
2019-05-06T06:24:29.262Z,987.86
2019-05-06T06:25:29.261Z,987.86
2019-05-06T06:26:29.261Z,987.87
2019-05-06T06:27:29.260Z,987.86
2019-05-06T06:28:29.260Z,987.88
2019-05-06T06:29:29.273Z,987.86
2019-05-06T06:30:29.264Z,987.86
2019-05-06T06:31:29.265Z,987.83
2019-05-06T06:32:29.266Z,987.88
2019-05-06T06:33:29.267Z,987.90
2019-05-06T06:34:29.269Z,987.86
2019-05-06T06:35:29.268Z,987.88
2019-05-06T06:36:29.272Z,987.88
2019-05-06T06:37:29.285Z,987.84
2019-05-06T06:38:29.275Z,987.86
2019-05-06T06:39:29.274Z,987.87
2019-05-06T06:40:29.279Z,987.85
2019-05-06T06:41:29.279Z,987.85
2019-05-06T06:42:29.284Z,987.85
2019-05-06T06:43:29.299Z,987.89
2019-05-06T06:44:29.287Z,987.89
2019-05-06T06:45:29.288Z,987.90
2019-05-06T06:46:29.285Z,987.88
2019-05-06T06:47:29.286Z,987.91
2019-05-06T06:48:29.289Z,987.92
2019-05-06T06:49:29.291Z,987.89
2019-05-06T06:50:29.289Z,987.92
2019-05-06T06:51:29.292Z,987.91
